KCHA/CHA METAR and TAF weather

Enter ICAO airport designator
Station Type Date Time Source
KCHA METAR 2018/01/21 11:53 UTC NOAA

KCHA 211153Z 00000KT 10SM SCT050 00/M02 A3025 RMK AO2 SLP247 T00001017 10022 21006 53009 $


Station Type Date Time Source
KCHA Decoded METAR 2018/01/21 11:53 UTC NOAA

LOVELL FIELD, TN, United States (KCHA) 35-02N 085-12W 210M
Jan 21, 2018 - 06:53 AM EST / 2018.01.21 1153 UTC
Wind: Calm:0
Visibility: 10 mile(s):0
Sky conditions: partly cloudy
Temperature: 32.0 F (0.0 C)
Dew Point: 28.9 F (-1.7 C)
Relative Humidity: 88%
Pressure (altimeter): 30.25 in. Hg (1024 hPa)
Pressure tendency: 0.03 inches (0.9 hPa) higher than three hours ago
ob: KCHA 211153Z 00000KT 10SM SCT050 00/M02 A3025 RMK AO2 SLP247 T00001017 10022 21006 53009
cycle: 12

Station Type Date Time Source
KCHA TAF 2018/01/21 12:30 UTC NOAA

TAF KCHA 211127Z 2112/2212 VRB03KT P6SM SCT050 BKN080
FM211900 18006KT P6SM SCT070
FM220000 VRB03KT P6SM BKN250


Example: see airport list